sensor_id;sensor_type;location;lat;lon;timestamp;temperature;humidity
4279;DHT22;2153;47.744;10.580;2023-06-26T00:02:15;12.70;99.90
4279;DHT22;2153;47.744;10.580;2023-06-26T00:04:43;12.80;99.90
4279;DHT22;2153;47.744;10.580;2023-06-26T00:07:10;12.80;99.90
4279;DHT22;2153;47.744;10.580;2023-06-26T00:09:37;12.80;99.90
4279;DHT22;2153;47.744;10.580;2023-06-26T00:12:04;12.80;99.90
4279;DHT22;2153;47.744;10.580;2023-06-26T00:14:31;12.80;99.90
4279;DHT22;2153;47.744;10.580;2023-06-26T00:16:58;12.80;99.90
4279;DHT22;2153;47.744;10.580;2023-06-26T00:19:25;12.70;99.90
4279;DHT22;2153;47.744;10.580;2023-06-26T00:21:53;12.50;99.90
4279;DHT22;2153;47.744;10.580;2023-06-26T00:24:19;12.30;99.90
4279;DHT22;2153;47.744;10.580;2023-06-26T00:26:47;12.20;99.90
4279;DHT22;2153;47.744;10.580;2023-06-26T00:29:14;12.20;99.90
4279;DHT22;2153;47.744;10.580;2023-06-26T00:31:40;12.20;99.90
4279;DHT22;2153;47.744;10.580;2023-06-26T00:34:07;12.20;99.90
4279;DHT22;2153;47.744;10.580;2023-06-26T00:36:34;12.00;99.90
4279;DHT22;2153;47.744;10.580;2023-06-26T00:39:02;12.10;99.90
4279;DHT22;2153;47.744;10.580;2023-06-26T00:41:30;12.00;99.90
4279;DHT22;2153;47.744;10.580;2023-06-26T00:43:57;11.90;99.90
4279;DHT22;2153;47.744;10.580;2023-06-26T00:46:24;12.00;99.90
4279;DHT22;2153;47.744;10.580;2023-06-26T00:48:52;11.90;99.90
4279;DHT22;2153;47.744;10.580;2023-06-26T00:51:19;11.80;99.90
4279;DHT22;2153;47.744;10.580;2023-06-26T00:53:45;11.90;99.90
4279;DHT22;2153;47.744;10.580;2023-06-26T00:56:14;11.80;99.90
4279;DHT22;2153;47.744;10.580;2023-06-26T00:58:41;11.80;99.90
4279;DHT22;2153;47.744;10.580;2023-06-26T01:01:08;11.70;99.90
4279;DHT22;2153;47.744;10.580;2023-06-26T01:03:39;11.70;99.90
4279;DHT22;2153;47.744;10.580;2023-06-26T01:06:07;11.80;99.90
4279;DHT22;2153;47.744;10.580;2023-06-26T01:08:37;11.80;99.90
4279;DHT22;2153;47.744;10.580;2023-06-26T01:11:04;11.80;99.90
4279;DHT22;2153;47.744;10.580;2023-06-26T01:13:33;11.90;99.90
4279;DHT22;2153;47.744;10.580;2023-06-26T01:16:02;11.90;99.90
4279;DHT22;2153;47.744;10.580;2023-06-26T01:18:29;11.90;99.90
4279;DHT22;2153;47.744;10.580;2023-06-26T01:20:57;11.90;99.90
4279;DHT22;2153;47.744;10.580;2023-06-26T01:23:31;11.80;99.90
4279;DHT22;2153;47.744;10.580;2023-06-26T01:26:17;11.70;99.90
4279;DHT22;2153;47.744;10.580;2023-06-26T01:28:45;11.60;99.90
4279;DHT22;2153;47.744;10.580;2023-06-26T01:31:13;11.60;99.90
4279;DHT22;2153;47.744;10.580;2023-06-26T01:33:41;11.50;99.90
4279;DHT22;2153;47.744;10.580;2023-06-26T01:36:08;11.50;99.90
4279;DHT22;2153;47.744;10.580;2023-06-26T01:38:35;11.40;99.90
4279;DHT22;2153;47.744;10.580;2023-06-26T01:41:02;11.30;99.90
4279;DHT22;2153;47.744;10.580;2023-06-26T01:43:36;11.30;99.90
4279;DHT22;2153;47.744;10.580;2023-06-26T01:46:09;11.30;99.90
4279;DHT22;2153;47.744;10.580;2023-06-26T01:48:49;11.30;99.90
4279;DHT22;2153;47.744;10.580;2023-06-26T01:51:17;11.30;99.90
4279;DHT22;2153;47.744;10.580;2023-06-26T01:53:51;11.20;99.90
4279;DHT22;2153;47.744;10.580;2023-06-26T01:56:21;11.20;99.90
4279;DHT22;2153;47.744;10.580;2023-06-26T01:58:51;11.30;99.90
4279;DHT22;2153;47.744;10.580;2023-06-26T02:01:20;11.30;99.90
4279;DHT22;2153;47.744;10.580;2023-06-26T02:03:47;11.30;99.90
4279;DHT22;2153;47.744;10.580;2023-06-26T02:06:14;11.40;99.90
4279;DHT22;2153;47.744;10.580;2023-06-26T02:08:40;11.30;99.90
4279;DHT22;2153;47.744;10.580;2023-06-26T02:11:07;11.40;99.90
4279;DHT22;2153;47.744;10.580;2023-06-26T02:13:34;11.50;99.90
4279;DHT22;2153;47.744;10.580;2023-06-26T02:16:02;11.50;99.90
4279;DHT22;2153;47.744;10.580;2023-06-26T02:18:28;11.60;99.90
4279;DHT22;2153;47.744;10.580;2023-06-26T02:20:55;11.50;99.90
4279;DHT22;2153;47.744;10.580;2023-06-26T02:23:22;11.40;99.90
4279;DHT22;2153;47.744;10.580;2023-06-26T02:25:48;11.40;99.90
4279;DHT22;2153;47.744;10.580;2023-06-26T02:28:15;11.30;99.90
4279;DHT22;2153;47.744;10.580;2023-06-26T02:30:42;11.30;99.90
4279;DHT22;2153;47.744;10.580;2023-06-26T02:33:10;11.30;99.90
4279;DHT22;2153;47.744;10.580;2023-06-26T02:35:37;11.20;99.90
4279;DHT22;2153;47.744;10.580;2023-06-26T02:38:03;11.20;99.90
4279;DHT22;2153;47.744;10.580;2023-06-26T02:40:30;11.10;99.90
4279;DHT22;2153;47.744;10.580;2023-06-26T02:42:56;11.00;99.90
4279;DHT22;2153;47.744;10.580;2023-06-26T02:45:23;11.10;99.90
4279;DHT22;2153;47.744;10.580;2023-06-26T02:47:50;11.10;99.90
4279;DHT22;2153;47.744;10.580;2023-06-26T02:50:18;11.10;99.90
4279;DHT22;2153;47.744;10.580;2023-06-26T02:52:45;11.10;99.90
4279;DHT22;2153;47.744;10.580;2023-06-26T02:55:13;11.20;99.90
4279;DHT22;2153;47.744;10.580;2023-06-26T02:57:40;11.20;99.90
4279;DHT22;2153;47.744;10.580;2023-06-26T03:00:08;11.10;99.90
4279;DHT22;2153;47.744;10.580;2023-06-26T03:02:36;11.10;99.90
4279;DHT22;2153;47.744;10.580;2023-06-26T03:05:03;11.10;99.90
4279;DHT22;2153;47.744;10.580;2023-06-26T03:07:31;11.10;99.90
4279;DHT22;2153;47.744;10.580;2023-06-26T03:09:58;11.10;99.90
4279;DHT22;2153;47.744;10.580;2023-06-26T03:12:26;11.00;99.90
4279;DHT22;2153;47.744;10.580;2023-06-26T03:14:52;11.00;99.90
4279;DHT22;2153;47.744;10.580;2023-06-26T03:17:19;11.00;99.90
4279;DHT22;2153;47.744;10.580;2023-06-26T03:19:46;11.10;99.90
4279;DHT22;2153;47.744;10.580;2023-06-26T03:22:12;11.10;99.90
4279;DHT22;2153;47.744;10.580;2023-06-26T03:24:40;11.10;99.90
4279;DHT22;2153;47.744;10.580;2023-06-26T03:27:07;11.20;99.90
4279;DHT22;2153;47.744;10.580;2023-06-26T03:29:35;11.20;99.90
4279;DHT22;2153;47.744;10.580;2023-06-26T03:32:02;11.20;99.90
4279;DHT22;2153;47.744;10.580;2023-06-26T03:34:28;11.20;99.90
4279;DHT22;2153;47.744;10.580;2023-06-26T03:36:55;11.20;99.90
4279;DHT22;2153;47.744;10.580;2023-06-26T03:39:22;11.20;99.90
4279;DHT22;2153;47.744;10.580;2023-06-26T03:41:50;11.30;99.90
4279;DHT22;2153;47.744;10.580;2023-06-26T03:44:18;11.30;99.90
4279;DHT22;2153;47.744;10.580;2023-06-26T03:46:45;11.30;99.90
4279;DHT22;2153;47.744;10.580;2023-06-26T03:49:12;11.30;99.90
4279;DHT22;2153;47.744;10.580;2023-06-26T03:51:38;11.20;99.90
4279;DHT22;2153;47.744;10.580;2023-06-26T03:54:05;11.30;99.90
4279;DHT22;2153;47.744;10.580;2023-06-26T03:56:32;11.40;99.90
4279;DHT22;2153;47.744;10.580;2023-06-26T03:59:00;11.50;99.90
4279;DHT22;2153;47.744;10.580;2023-06-26T04:01:27;11.60;99.90
4279;DHT22;2153;47.744;10.580;2023-06-26T04:03:53;11.70;99.90
4279;DHT22;2153;47.744;10.580;2023-06-26T04:06:20;11.80;99.90
4279;DHT22;2153;47.744;10.580;2023-06-26T04:08:47;11.90;99.90
4279;DHT22;2153;47.744;10.580;2023-06-26T04:11:14;12.00;99.90
4279;DHT22;2153;47.744;10.580;2023-06-26T04:13:41;12.10;99.90
4279;DHT22;2153;47.744;10.580;2023-06-26T04:16:09;12.20;99.90
4279;DHT22;2153;47.744;10.580;2023-06-26T04:18:37;12.40;99.90
4279;DHT22;2153;47.744;10.580;2023-06-26T04:21:05;12.50;99.90
4279;DHT22;2153;47.744;10.580;2023-06-26T04:23:32;12.70;99.90
4279;DHT22;2153;47.744;10.580;2023-06-26T04:25:58;12.80;99.90
4279;DHT22;2153;47.744;10.580;2023-06-26T04:28:25;12.90;99.90
4279;DHT22;2153;47.744;10.580;2023-06-26T04:30:52;13.00;99.90
4279;DHT22;2153;47.744;10.580;2023-06-26T04:33:20;13.00;99.90
4279;DHT22;2153;47.744;10.580;2023-06-26T04:35:47;13.10;99.90
4279;DHT22;2153;47.744;10.580;2023-06-26T04:38:15;13.20;99.90
4279;DHT22;2153;47.744;10.580;2023-06-26T04:40:41;13.40;99.90
4279;DHT22;2153;47.744;10.580;2023-06-26T04:43:08;13.40;99.90
4279;DHT22;2153;47.744;10.580;2023-06-26T04:45:35;13.70;99.90
4279;DHT22;2153;47.744;10.580;2023-06-26T04:48:02;13.90;99.90
4279;DHT22;2153;47.744;10.580;2023-06-26T04:50:30;14.20;99.90
4279;DHT22;2153;47.744;10.580;2023-06-26T04:52:57;14.30;99.90
4279;DHT22;2153;47.744;10.580;2023-06-26T04:55:24;14.50;99.90
4279;DHT22;2153;47.744;10.580;2023-06-26T04:57:51;14.80;99.90
4279;DHT22;2153;47.744;10.580;2023-06-26T05:00:18;14.90;99.90
4279;DHT22;2153;47.744;10.580;2023-06-26T05:02:45;15.10;99.90
4279;DHT22;2153;47.744;10.580;2023-06-26T05:05:11;15.40;99.90
4279;DHT22;2153;47.744;10.580;2023-06-26T05:07:41;15.80;99.90
4279;DHT22;2153;47.744;10.580;2023-06-26T05:10:08;16.10;99.90
4279;DHT22;2153;47.744;10.580;2023-06-26T05:12:35;16.40;99.90
4279;DHT22;2153;47.744;10.580;2023-06-26T05:15:02;16.70;99.90
4279;DHT22;2153;47.744;10.580;2023-06-26T05:17:28;17.10;99.90
4279;DHT22;2153;47.744;10.580;2023-06-26T05:19:55;17.40;99.90
4279;DHT22;2153;47.744;10.580;2023-06-26T05:22:22;17.70;99.90
4279;DHT22;2153;47.744;10.580;2023-06-26T05:24:51;18.00;99.90
4279;DHT22;2153;47.744;10.580;2023-06-26T05:27:20;18.30;99.90
4279;DHT22;2153;47.744;10.580;2023-06-26T05:29:48;18.60;99.90
4279;DHT22;2153;47.744;10.580;2023-06-26T05:32:16;18.90;99.90
4279;DHT22;2153;47.744;10.580;2023-06-26T05:34:45;19.30;99.90
4279;DHT22;2153;47.744;10.580;2023-06-26T05:37:14;19.60;99.90
4279;DHT22;2153;47.744;10.580;2023-06-26T05:39:45;20.00;99.90
4279;DHT22;2153;47.744;10.580;2023-06-26T05:42:14;20.30;99.90
4279;DHT22;2153;47.744;10.580;2023-06-26T05:44:41;20.70;99.90
4279;DHT22;2153;47.744;10.580;2023-06-26T05:47:08;21.00;99.90
4279;DHT22;2153;47.744;10.580;2023-06-26T05:49:34;21.20;99.90
4279;DHT22;2153;47.744;10.580;2023-06-26T05:52:02;21.30;99.90
4279;DHT22;2153;47.744;10.580;2023-06-26T05:54:29;21.60;99.90
4279;DHT22;2153;47.744;10.580;2023-06-26T05:56:57;21.70;99.90
4279;DHT22;2153;47.744;10.580;2023-06-26T05:59:26;21.90;99.90
4279;DHT22;2153;47.744;10.580;2023-06-26T06:01:53;22.10;99.90
4279;DHT22;2153;47.744;10.580;2023-06-26T06:04:20;22.30;99.90
4279;DHT22;2153;47.744;10.580;2023-06-26T06:06:47;22.40;99.90
4279;DHT22;2153;47.744;10.580;2023-06-26T06:09:13;22.60;99.90
4279;DHT22;2153;47.744;10.580;2023-06-26T06:11:40;22.70;99.90
4279;DHT22;2153;47.744;10.580;2023-06-26T06:14:07;22.70;99.90
4279;DHT22;2153;47.744;10.580;2023-06-26T06:16:35;22.60;99.90
4279;DHT22;2153;47.744;10.580;2023-06-26T06:19:03;22.50;99.90
4279;DHT22;2153;47.744;10.580;2023-06-26T06:21:32;22.50;99.90
4279;DHT22;2153;47.744;10.580;2023-06-26T06:23:58;22.30;99.90
4279;DHT22;2153;47.744;10.580;2023-06-26T06:26:26;22.30;99.90
4279;DHT22;2153;47.744;10.580;2023-06-26T06:28:53;22.30;99.90
4279;DHT22;2153;47.744;10.580;2023-06-26T06:31:20;22.40;99.90
4279;DHT22;2153;47.744;10.580;2023-06-26T06:33:48;22.30;99.90
4279;DHT22;2153;47.744;10.580;2023-06-26T06:36:15;22.50;99.90
4279;DHT22;2153;47.744;10.580;2023-06-26T06:38:43;22.90;99.90
4279;DHT22;2153;47.744;10.580;2023-06-26T06:41:10;23.20;99.90
4279;DHT22;2153;47.744;10.580;2023-06-26T06:43:37;23.50;99.90
4279;DHT22;2153;47.744;10.580;2023-06-26T06:46:03;23.60;99.90
4279;DHT22;2153;47.744;10.580;2023-06-26T06:48:30;23.90;99.90
4279;DHT22;2153;47.744;10.580;2023-06-26T06:50:59;24.20;99.90
4279;DHT22;2153;47.744;10.580;2023-06-26T06:53:25;24.40;97.90
4279;DHT22;2153;47.744;10.580;2023-06-26T06:55:52;24.40;85.80
4279;DHT22;2153;47.744;10.580;2023-06-26T06:58:19;24.70;86.50
4279;DHT22;2153;47.744;10.580;2023-06-26T07:00:45;25.00;86.30
4279;DHT22;2153;47.744;10.580;2023-06-26T07:03:12;25.30;84.50
4279;DHT22;2153;47.744;10.580;2023-06-26T07:05:41;25.70;73.80
4279;DHT22;2153;47.744;10.580;2023-06-26T07:08:09;25.70;38.60
4279;DHT22;2153;47.744;10.580;2023-06-26T07:10:36;25.90;54.80
4279;DHT22;2153;47.744;10.580;2023-06-26T07:13:03;25.80;37.30
4279;DHT22;2153;47.744;10.580;2023-06-26T07:15:31;25.50;51.00
4279;DHT22;2153;47.744;10.580;2023-06-26T07:17:57;26.00;68.80
4279;DHT22;2153;47.744;10.580;2023-06-26T07:20:24;26.20;46.50
4279;DHT22;2153;47.744;10.580;2023-06-26T07:22:53;26.20;41.20
4279;DHT22;2153;47.744;10.580;2023-06-26T07:25:21;26.60;46.10
4279;DHT22;2153;47.744;10.580;2023-06-26T07:27:47;26.90;29.60
4279;DHT22;2153;47.744;10.580;2023-06-26T07:30:14;27.00;21.10
4279;DHT22;2153;47.744;10.580;2023-06-26T07:32:41;26.90;18.40
4279;DHT22;2153;47.744;10.580;2023-06-26T07:35:08;26.90;25.60
4279;DHT22;2153;47.744;10.580;2023-06-26T07:37:34;27.30;31.00
4279;DHT22;2153;47.744;10.580;2023-06-26T07:40:01;27.80;34.00
4279;DHT22;2153;47.744;10.580;2023-06-26T07:42:29;28.00;4.80
4279;DHT22;2153;47.744;10.580;2023-06-26T07:44:56;28.10;7.00
4279;DHT22;2153;47.744;10.580;2023-06-26T07:47:22;28.30;4.10
4279;DHT22;2153;47.744;10.580;2023-06-26T07:49:49;28.50;9.00
4279;DHT22;2153;47.744;10.580;2023-06-26T07:52:16;28.80;3.00
4279;DHT22;2153;47.744;10.580;2023-06-26T07:54:42;28.90;1.00
4279;DHT22;2153;47.744;10.580;2023-06-26T07:57:09;28.80;1.00
4279;DHT22;2153;47.744;10.580;2023-06-26T07:59:39;28.80;1.00
4279;DHT22;2153;47.744;10.580;2023-06-26T08:02:06;28.90;1.00
4279;DHT22;2153;47.744;10.580;2023-06-26T08:04:33;29.20;1.00
4279;DHT22;2153;47.744;10.580;2023-06-26T08:07:01;29.30;1.00
4279;DHT22;2153;47.744;10.580;2023-06-26T08:09:29;29.10;1.00
4279;DHT22;2153;47.744;10.580;2023-06-26T08:11:57;29.30;1.00
4279;DHT22;2153;47.744;10.580;2023-06-26T08:14:24;29.40;1.00
4279;DHT22;2153;47.744;10.580;2023-06-26T08:16:52;29.20;1.00
4279;DHT22;2153;47.744;10.580;2023-06-26T08:19:19;29.20;1.00
4279;DHT22;2153;47.744;10.580;2023-06-26T08:21:46;29.00;1.00
4279;DHT22;2153;47.744;10.580;2023-06-26T08:24:13;29.20;1.00
4279;DHT22;2153;47.744;10.580;2023-06-26T08:26:41;29.30;1.00
4279;DHT22;2153;47.744;10.580;2023-06-26T08:29:08;29.50;1.00
4279;DHT22;2153;47.744;10.580;2023-06-26T08:31:35;29.50;1.00
4279;DHT22;2153;47.744;10.580;2023-06-26T08:34:03;29.30;1.00
4279;DHT22;2153;47.744;10.580;2023-06-26T08:36:31;29.20;1.00
4279;DHT22;2153;47.744;10.580;2023-06-26T08:38:58;29.20;1.00
4279;DHT22;2153;47.744;10.580;2023-06-26T08:41:25;29.30;1.00
4279;DHT22;2153;47.744;10.580;2023-06-26T08:43:51;29.60;1.00
4279;DHT22;2153;47.744;10.580;2023-06-26T08:46:18;30.20;1.00
4279;DHT22;2153;47.744;10.580;2023-06-26T08:48:49;30.40;1.00
4279;DHT22;2153;47.744;10.580;2023-06-26T08:51:21;30.50;1.00
4279;DHT22;2153;47.744;10.580;2023-06-26T08:53:54;30.60;1.00
4279;DHT22;2153;47.744;10.580;2023-06-26T08:56:22;30.50;1.00
4279;DHT22;2153;47.744;10.580;2023-06-26T08:58:50;30.50;1.00
4279;DHT22;2153;47.744;10.580;2023-06-26T09:01:17;30.60;1.00
4279;DHT22;2153;47.744;10.580;2023-06-26T09:03:44;30.70;1.00
4279;DHT22;2153;47.744;10.580;2023-06-26T09:06:11;30.70;1.00
4279;DHT22;2153;47.744;10.580;2023-06-26T09:08:39;30.70;1.00
4279;DHT22;2153;47.744;10.580;2023-06-26T09:11:06;30.60;1.00
4279;DHT22;2153;47.744;10.580;2023-06-26T09:13:33;30.70;1.00
4279;DHT22;2153;47.744;10.580;2023-06-26T09:16:04;30.90;1.00
4279;DHT22;2153;47.744;10.580;2023-06-26T09:18:33;30.70;1.00
4279;DHT22;2153;47.744;10.580;2023-06-26T09:21:06;30.60;1.00
4279;DHT22;2153;47.744;10.580;2023-06-26T09:23:34;30.80;1.00
4279;DHT22;2153;47.744;10.580;2023-06-26T09:26:04;31.00;1.00
4279;DHT22;2153;47.744;10.580;2023-06-26T09:28:32;31.10;1.00
4279;DHT22;2153;47.744;10.580;2023-06-26T09:31:02;31.20;1.00
4279;DHT22;2153;47.744;10.580;2023-06-26T09:33:33;31.40;1.00
4279;DHT22;2153;47.744;10.580;2023-06-26T09:36:01;31.60;1.00
4279;DHT22;2153;47.744;10.580;2023-06-26T09:38:28;31.40;1.00
4279;DHT22;2153;47.744;10.580;2023-06-26T09:40:54;31.40;1.00
4279;DHT22;2153;47.744;10.580;2023-06-26T09:43:23;31.60;1.00
4279;DHT22;2153;47.744;10.580;2023-06-26T09:45:50;31.60;1.00
4279;DHT22;2153;47.744;10.580;2023-06-26T09:48:17;31.50;1.00
4279;DHT22;2153;47.744;10.580;2023-06-26T09:50:43;31.40;1.00
4279;DHT22;2153;47.744;10.580;2023-06-26T09:53:12;31.10;1.00
4279;DHT22;2153;47.744;10.580;2023-06-26T09:55:40;30.90;1.00
4279;DHT22;2153;47.744;10.580;2023-06-26T09:58:10;31.00;1.00
4279;DHT22;2153;47.744;10.580;2023-06-26T10:00:41;31.40;1.00
4279;DHT22;2153;47.744;10.580;2023-06-26T10:03:08;31.60;1.00
4279;DHT22;2153;47.744;10.580;2023-06-26T10:05:34;31.90;1.00
4279;DHT22;2153;47.744;10.580;2023-06-26T10:08:02;31.80;1.00
4279;DHT22;2153;47.744;10.580;2023-06-26T10:10:31;32.10;1.00
4279;DHT22;2153;47.744;10.580;2023-06-26T10:13:03;31.70;1.00
4279;DHT22;2153;47.744;10.580;2023-06-26T10:15:31;31.30;1.00
4279;DHT22;2153;47.744;10.580;2023-06-26T10:17:59;30.80;1.00
4279;DHT22;2153;47.744;10.580;2023-06-26T10:20:26;31.30;1.00
4279;DHT22;2153;47.744;10.580;2023-06-26T10:22:55;31.80;1.00
4279;DHT22;2153;47.744;10.580;2023-06-26T10:25:24;32.40;1.00
4279;DHT22;2153;47.744;10.580;2023-06-26T10:27:54;32.80;1.00
4279;DHT22;2153;47.744;10.580;2023-06-26T10:30:24;33.00;1.00
4279;DHT22;2153;47.744;10.580;2023-06-26T10:32:54;32.70;1.00
4279;DHT22;2153;47.744;10.580;2023-06-26T10:35:23;32.20;1.00
4279;DHT22;2153;47.744;10.580;2023-06-26T10:37:50;31.90;1.00
4279;DHT22;2153;47.744;10.580;2023-06-26T10:40:22;31.90;1.00
4279;DHT22;2153;47.744;10.580;2023-06-26T10:42:49;32.00;1.00
4279;DHT22;2153;47.744;10.580;2023-06-26T10:45:17;31.70;1.00
4279;DHT22;2153;47.744;10.580;2023-06-26T10:47:46;31.80;1.00
4279;DHT22;2153;47.744;10.580;2023-06-26T10:50:20;32.00;1.00
4279;DHT22;2153;47.744;10.580;2023-06-26T10:53:07;31.60;1.00
4279;DHT22;2153;47.744;10.580;2023-06-26T10:55:34;31.90;1.00
4279;DHT22;2153;47.744;10.580;2023-06-26T10:58:01;32.20;1.00
4279;DHT22;2153;47.744;10.580;2023-06-26T11:00:28;32.00;1.00
4279;DHT22;2153;47.744;10.580;2023-06-26T11:02:55;32.00;1.00
4279;DHT22;2153;47.744;10.580;2023-06-26T11:05:26;32.00;1.00
4279;DHT22;2153;47.744;10.580;2023-06-26T11:08:05;32.30;1.00
4279;DHT22;2153;47.744;10.580;2023-06-26T11:10:51;32.60;1.00
4279;DHT22;2153;47.744;10.580;2023-06-26T11:13:19;32.00;1.00
4279;DHT22;2153;47.744;10.580;2023-06-26T11:15:46;32.40;1.00
4279;DHT22;2153;47.744;10.580;2023-06-26T11:18:13;32.70;1.00
4279;DHT22;2153;47.744;10.580;2023-06-26T11:20:40;32.90;1.00
4279;DHT22;2153;47.744;10.580;2023-06-26T11:23:09;33.10;1.00
4279;DHT22;2153;47.744;10.580;2023-06-26T11:25:37;33.30;1.00
4279;DHT22;2153;47.744;10.580;2023-06-26T11:28:04;33.30;1.00
4279;DHT22;2153;47.744;10.580;2023-06-26T11:30:32;33.40;1.00
4279;DHT22;2153;47.744;10.580;2023-06-26T11:33:05;33.30;1.00
4279;DHT22;2153;47.744;10.580;2023-06-26T11:35:33;32.90;1.00
4279;DHT22;2153;47.744;10.580;2023-06-26T11:38:01;33.00;1.00
4279;DHT22;2153;47.744;10.580;2023-06-26T11:40:33;33.30;1.00
4279;DHT22;2153;47.744;10.580;2023-06-26T11:43:01;33.50;1.00
4279;DHT22;2153;47.744;10.580;2023-06-26T11:45:29;33.70;1.00
4279;DHT22;2153;47.744;10.580;2023-06-26T11:47:56;33.10;1.00
4279;DHT22;2153;47.744;10.580;2023-06-26T11:50:23;32.80;1.00
4279;DHT22;2153;47.744;10.580;2023-06-26T11:52:53;32.50;1.00
4279;DHT22;2153;47.744;10.580;2023-06-26T11:55:22;32.40;1.00
4279;DHT22;2153;47.744;10.580;2023-06-26T11:57:52;32.40;1.00
4279;DHT22;2153;47.744;10.580;2023-06-26T12:00:20;33.00;1.00
4279;DHT22;2153;47.744;10.580;2023-06-26T12:02:47;33.30;1.00
4279;DHT22;2153;47.744;10.580;2023-06-26T12:05:15;33.30;1.00
4279;DHT22;2153;47.744;10.580;2023-06-26T12:07:43;32.90;1.00
4279;DHT22;2153;47.744;10.580;2023-06-26T12:10:10;32.50;1.00
4279;DHT22;2153;47.744;10.580;2023-06-26T12:12:38;32.70;1.00
4279;DHT22;2153;47.744;10.580;2023-06-26T12:15:08;32.90;1.00
4279;DHT22;2153;47.744;10.580;2023-06-26T12:17:38;32.90;1.00
4279;DHT22;2153;47.744;10.580;2023-06-26T12:20:16;33.00;1.00
4279;DHT22;2153;47.744;10.580;2023-06-26T12:22:45;33.10;1.00
4279;DHT22;2153;47.744;10.580;2023-06-26T12:25:12;33.20;1.00
4279;DHT22;2153;47.744;10.580;2023-06-26T12:27:39;33.20;1.00
4279;DHT22;2153;47.744;10.580;2023-06-26T12:30:08;32.50;1.00
4279;DHT22;2153;47.744;10.580;2023-06-26T12:32:35;32.10;1.00
4279;DHT22;2153;47.744;10.580;2023-06-26T12:35:01;32.20;1.00
4279;DHT22;2153;47.744;10.580;2023-06-26T12:37:28;32.20;1.00
4279;DHT22;2153;47.744;10.580;2023-06-26T12:39:56;32.40;1.00
4279;DHT22;2153;47.744;10.580;2023-06-26T12:42:24;32.70;1.00
4279;DHT22;2153;47.744;10.580;2023-06-26T12:44:51;33.10;1.00
4279;DHT22;2153;47.744;10.580;2023-06-26T12:47:23;33.20;1.00
4279;DHT22;2153;47.744;10.580;2023-06-26T12:49:51;33.30;1.00
4279;DHT22;2153;47.744;10.580;2023-06-26T12:52:18;33.10;1.00
4279;DHT22;2153;47.744;10.580;2023-06-26T12:54:46;33.00;1.00
4279;DHT22;2153;47.744;10.580;2023-06-26T12:57:13;33.10;1.00
4279;DHT22;2153;47.744;10.580;2023-06-26T12:59:40;33.00;1.00
4279;DHT22;2153;47.744;10.580;2023-06-26T13:02:07;33.10;1.00
4279;DHT22;2153;47.744;10.580;2023-06-26T13:04:36;33.00;1.00
4279;DHT22;2153;47.744;10.580;2023-06-26T13:07:05;33.20;1.00
4279;DHT22;2153;47.744;10.580;2023-06-26T13:09:32;33.30;1.00
4279;DHT22;2153;47.744;10.580;2023-06-26T13:12:00;33.40;1.00
4279;DHT22;2153;47.744;10.580;2023-06-26T13:14:27;33.30;1.00
4279;DHT22;2153;47.744;10.580;2023-06-26T13:16:53;33.20;1.00
4279;DHT22;2153;47.744;10.580;2023-06-26T13:19:20;33.10;1.00
4279;DHT22;2153;47.744;10.580;2023-06-26T13:21:48;33.20;1.00
4279;DHT22;2153;47.744;10.580;2023-06-26T13:24:15;33.20;1.00
4279;DHT22;2153;47.744;10.580;2023-06-26T13:26:41;33.20;1.00
4279;DHT22;2153;47.744;10.580;2023-06-26T13:29:08;33.20;1.00
4279;DHT22;2153;47.744;10.580;2023-06-26T13:31:35;33.30;1.00
4279;DHT22;2153;47.744;10.580;2023-06-26T13:34:03;33.40;1.00
4279;DHT22;2153;47.744;10.580;2023-06-26T13:36:30;33.30;1.00
4279;DHT22;2153;47.744;10.580;2023-06-26T13:39:01;33.40;1.00
4279;DHT22;2153;47.744;10.580;2023-06-26T13:41:28;33.40;1.00
4279;DHT22;2153;47.744;10.580;2023-06-26T13:43:55;33.30;1.00
4279;DHT22;2153;47.744;10.580;2023-06-26T13:46:22;32.60;1.00
4279;DHT22;2153;47.744;10.580;2023-06-26T13:48:48;32.10;1.00
4279;DHT22;2153;47.744;10.580;2023-06-26T13:51:15;32.60;1.00
4279;DHT22;2153;47.744;10.580;2023-06-26T13:53:41;32.70;1.00
4279;DHT22;2153;47.744;10.580;2023-06-26T13:56:09;32.40;1.00
4279;DHT22;2153;47.744;10.580;2023-06-26T13:58:36;32.30;1.00
4279;DHT22;2153;47.744;10.580;2023-06-26T14:01:03;32.30;1.00
4279;DHT22;2153;47.744;10.580;2023-06-26T14:03:30;32.30;1.00
4279;DHT22;2153;47.744;10.580;2023-06-26T14:05:57;32.10;1.00
4279;DHT22;2153;47.744;10.580;2023-06-26T14:08:24;31.90;1.00
4279;DHT22;2153;47.744;10.580;2023-06-26T14:10:50;32.00;1.00
4279;DHT22;2153;47.744;10.580;2023-06-26T14:13:18;31.40;1.00
4279;DHT22;2153;47.744;10.580;2023-06-26T14:15:45;31.10;1.00
4279;DHT22;2153;47.744;10.580;2023-06-26T14:18:11;30.70;1.00
4279;DHT22;2153;47.744;10.580;2023-06-26T14:20:38;30.20;1.00
4279;DHT22;2153;47.744;10.580;2023-06-26T14:23:05;29.80;1.00
4279;DHT22;2153;47.744;10.580;2023-06-26T14:25:31;29.30;1.00
4279;DHT22;2153;47.744;10.580;2023-06-26T14:27:58;29.00;1.00
4279;DHT22;2153;47.744;10.580;2023-06-26T14:30:26;28.80;1.00
4279;DHT22;2153;47.744;10.580;2023-06-26T14:32:53;28.50;1.00
4279;DHT22;2153;47.744;10.580;2023-06-26T14:35:20;28.40;1.00
4279;DHT22;2153;47.744;10.580;2023-06-26T14:37:47;28.10;1.00
4279;DHT22;2153;47.744;10.580;2023-06-26T14:40:14;28.00;1.00
4279;DHT22;2153;47.744;10.580;2023-06-26T14:42:41;27.80;1.00
4279;DHT22;2153;47.744;10.580;2023-06-26T14:45:09;27.60;1.00
4279;DHT22;2153;47.744;10.580;2023-06-26T14:47:38;27.60;1.00
4279;DHT22;2153;47.744;10.580;2023-06-26T14:50:05;27.60;1.00
4279;DHT22;2153;47.744;10.580;2023-06-26T14:52:33;27.50;1.00
4279;DHT22;2153;47.744;10.580;2023-06-26T14:54:59;27.40;1.00
4279;DHT22;2153;47.744;10.580;2023-06-26T14:57:26;27.30;1.00
4279;DHT22;2153;47.744;10.580;2023-06-26T14:59:52;27.30;1.00
4279;DHT22;2153;47.744;10.580;2023-06-26T15:02:19;27.30;1.00
4279;DHT22;2153;47.744;10.580;2023-06-26T15:04:47;27.30;1.00
4279;DHT22;2153;47.744;10.580;2023-06-26T15:07:14;27.40;11.20
4279;DHT22;2153;47.744;10.580;2023-06-26T15:09:41;27.50;23.70
4279;DHT22;2153;47.744;10.580;2023-06-26T15:12:08;27.40;30.70
4279;DHT22;2153;47.744;10.580;2023-06-26T15:14:34;27.30;34.80
4279;DHT22;2153;47.744;10.580;2023-06-26T15:17:01;27.40;52.60
4279;DHT22;2153;47.744;10.580;2023-06-26T15:19:28;27.40;37.70
4279;DHT22;2153;47.744;10.580;2023-06-26T15:21:56;27.80;50.00
4279;DHT22;2153;47.744;10.580;2023-06-26T15:24:22;28.40;27.70
4279;DHT22;2153;47.744;10.580;2023-06-26T15:26:49;28.50;37.60
4279;DHT22;2153;47.744;10.580;2023-06-26T15:29:15;28.80;27.70
4279;DHT22;2153;47.744;10.580;2023-06-26T15:31:43;28.90;24.40
4279;DHT22;2153;47.744;10.580;2023-06-26T15:34:09;28.50;11.60
4279;DHT22;2153;47.744;10.580;2023-06-26T15:36:36;28.20;38.50
4279;DHT22;2153;47.744;10.580;2023-06-26T15:39:04;27.90;47.10
4279;DHT22;2153;47.744;10.580;2023-06-26T15:41:31;27.50;39.80
4279;DHT22;2153;47.744;10.580;2023-06-26T15:43:58;27.60;57.90
4279;DHT22;2153;47.744;10.580;2023-06-26T15:46:24;27.70;75.00
4279;DHT22;2153;47.744;10.580;2023-06-26T15:48:51;27.70;65.50
4279;DHT22;2153;47.744;10.580;2023-06-26T15:51:17;27.70;66.90
4279;DHT22;2153;47.744;10.580;2023-06-26T15:53:44;27.50;61.40
4279;DHT22;2153;47.744;10.580;2023-06-26T15:56:13;27.60;68.50